Saint Libory, Illinois
Current Conditions -  °F | °C
As of 6:55 AM on Monday 22 Dec 2014 (Local Time) from KSAR Reporting Station
Overcast Overcast  
Wind Chill: 33°   Ceiling: 1600
Heat Index: 39°   Visibility: 10mi
Dew Point: 36°   Wind: 9mph
Humidity: 88%   Direction: 130°SE
Pressure: 29.81"   Gusts: NA
Location:  38.36°N, 89.71°W
Report Text: KSAR 221255Z AUTO 13008KT 10SM OVC016 04/02 A2981 RMK AO2 T00400021
Loading
Personal Weather Stations






























Interactive Weather Map New forecast layout! Learn more

10-Day Weather Forecast

Advertisements
Track Severe Weather on mobile